Time;durP1;ratioP1;P1;durP2;ratioP2;P2;SDS_P1;SDS_P2;PMS_P1;PMS_P2;Temp;Humidity;BMP_temperature;BMP_pressure;BME280_temperature;BME280_humidity;BME280_pressure;Samples;Min_cycle;Max_cycle;Signal;HPM_P1;HPM_P2
2023/08/16 00:00:32;;;;;;;2.15;1.48;;;;;;;;;;5103251;28;20478;-60
2023/08/16 00:02:59;;;;;;;2.45;1.40;;;;;;;;;;5116457;28;20055;-60
2023/08/16 00:05:25;;;;;;;3.60;1.52;;;;;;;;;;5116046;28;20074;-60
2023/08/16 00:07:52;;;;;;;4.82;1.83;;;;;;;;;;5115818;28;20047;-59
2023/08/16 00:10:19;;;;;;;2.65;1.35;;;;;;;;;;5116048;28;20055;-60
2023/08/16 00:12:46;;;;;;;3.53;1.85;;;;;;;;;;5115769;28;20055;-60
2023/08/16 00:15:13;;;;;;;2.33;1.40;;;;;;;;;;5103222;28;20044;-60
2023/08/16 00:17:41;;;;;;;2.83;1.60;;;;;;;;;;5095893;28;20059;-60
2023/08/16 00:20:10;;;;;;;3.65;1.80;;;;;;;;;;5095274;28;20058;-60
2023/08/16 00:22:37;;;;;;;3.45;1.60;;;;;;;;;;5095409;28;20052;-60
2023/08/16 00:25:04;;;;;;;2.17;1.40;;;;;;;;;;5095694;28;20056;-60
2023/08/16 00:27:30;;;;;;;3.63;2.17;;;;;;;;;;5095575;28;20404;-60
2023/08/16 00:29:57;;;;;;;3.15;1.60;;;;;;;;;;5093974;28;20048;-60
2023/08/16 00:32:24;;;;;;;2.53;1.50;;;;;;;;;;5094869;28;20059;-60
2023/08/16 00:34:52;;;;;;;3.97;1.95;;;;;;;;;;5095230;28;20481;-60
2023/08/16 00:37:22;;;;;;;4.80;1.67;;;;;;;;;;5094933;28;20051;-60
2023/08/16 00:39:49;;;;;;;3.05;1.52;;;;;;;;;;5105607;27;20051;-60
2023/08/16 00:42:15;;;;;;;2.40;1.85;;;;;;;;;;5115716;28;20386;-61
2023/08/16 00:44:42;;;;;;;3.05;1.55;;;;;;;;;;5103412;28;20059;-60
2023/08/16 00:47:09;;;;;;;3.80;1.83;;;;;;;;;;5095118;28;20056;-60
2023/08/16 00:49:39;;;;;;;2.65;1.70;;;;;;;;;;5086788;28;20056;-60
2023/08/16 00:52:09;;;;;;;3.58;1.40;;;;;;;;;;5092202;28;20052;-60
2023/08/16 00:54:36;;;;;;;3.33;1.23;;;;;;;;;;5094606;28;20151;-60
2023/08/16 00:57:04;;;;;;;1.88;1.40;;;;;;;;;;5095060;28;20055;-60
2023/08/16 00:59:31;;;;;;;3.97;1.83;;;;;;;;;;5085755;28;20488;-60
2023/08/16 01:01:57;;;;;;;2.83;1.40;;;;;;;;;;5094622;28;20056;-60
2023/08/16 01:04:24;;;;;;;2.42;1.52;;;;;;;;;;5094639;28;20048;-60
2023/08/16 01:06:53;;;;;;;3.40;1.75;;;;;;;;;;5094691;28;20051;-60
2023/08/16 01:09:21;;;;;;;5.75;1.40;;;;;;;;;;5094857;28;20051;-60
2023/08/16 01:11:57;;;;;;;2.85;2.00;;;;;;;;;;5094816;28;20052;-60
2023/08/16 01:14:26;;;;;;;4.18;1.50;;;;;;;;;;5091359;28;20048;-61
2023/08/16 01:16:53;;;;;;;2.92;1.60;;;;;;;;;;5093937;28;20055;-60
2023/08/16 01:19:28;;;;;;;2.50;1.67;;;;;;;;;;5094589;28;20477;-60
2023/08/16 01:21:59;;;;;;;2.25;1.50;;;;;;;;;;5094853;28;20484;-60
2023/08/16 01:24:45;;;;;;;3.15;1.83;;;;;;;;;;5094662;28;20059;-61
2023/08/16 01:27:18;;;;;;;2.72;1.63;;;;;;;;;;5094096;28;20048;-60
2023/08/16 01:29:45;;;;;;;2.97;1.73;;;;;;;;;;5092329;28;20492;-60
2023/08/16 01:32:15;;;;;;;3.55;1.70;;;;;;;;;;5094442;28;20056;-60
2023/08/16 01:34:42;;;;;;;3.53;1.70;;;;;;;;;;5102490;28;20499;-60
2023/08/16 01:37:09;;;;;;;2.97;1.50;;;;;;;;;;5114246;28;20385;-60
2023/08/16 01:39:38;;;;;;;3.13;1.70;;;;;;;;;;5114183;28;20062;-60
2023/08/16 01:42:13;;;;;;;3.72;1.52;;;;;;;;;;5114525;28;20059;-60
2023/08/16 01:44:41;;;;;;;3.10;1.75;;;;;;;;;;5098836;28;20059;-60
2023/08/16 01:47:07;;;;;;;2.60;1.30;;;;;;;;;;5094188;28;20060;-60
2023/08/16 01:49:35;;;;;;;3.42;2.08;;;;;;;;;;5093881;28;20057;-60
2023/08/16 01:52:02;;;;;;;2.63;1.42;;;;;;;;;;5093884;28;20048;-60
2023/08/16 01:54:29;;;;;;;4.47;2.58;;;;;;;;;;5093668;28;20051;-60
2023/08/16 01:56:55;;;;;;;3.38;2.00;;;;;;;;;;5093304;28;20056;-60
2023/08/16 01:59:22;;;;;;;2.63;1.67;;;;;;;;;;5091254;28;20063;-60
2023/08/16 02:01:50;;;;;;;2.70;1.85;;;;;;;;;;5093336;28;20051;-60
2023/08/16 02:04:17;;;;;;;3.25;1.60;;;;;;;;;;5091914;28;20068;-60
2023/08/16 02:06:44;;;;;;;4.05;2.05;;;;;;;;;;5093581;28;20048;-60
2023/08/16 02:09:11;;;;;;;4.50;2.17;;;;;;;;;;5093238;28;20055;-59
2023/08/16 02:11:38;;;;;;;3.17;1.90;;;;;;;;;;5093564;28;20063;-59
2023/08/16 02:14:05;;;;;;;3.75;2.30;;;;;;;;;;5090121;28;20059;-61
2023/08/16 02:16:31;;;;;;;2.53;1.67;;;;;;;;;;5093416;28;20047;-60
2023/08/16 02:19:00;;;;;;;3.78;2.00;;;;;;;;;;5098246;28;20048;-59
2023/08/16 02:21:26;;;;;;;3.03;1.60;;;;;;;;;;5113036;28;20052;-60
2023/08/16 02:23:53;;;;;;;2.88;1.85;;;;;;;;;;5113240;28;20052;-60
2023/08/16 02:26:20;;;;;;;2.55;1.50;;;;;;;;;;5112577;28;20052;-60
2023/08/16 02:28:50;;;;;;;2.35;1.70;;;;;;;;;;5106240;28;20051;-60
2023/08/16 02:31:17;;;;;;;4.93;1.67;;;;;;;;;;5093455;28;20052;-60
2023/08/16 02:33:44;;;;;;;3.53;1.75;;;;;;;;;;5092723;28;20074;-60
2023/08/16 02:36:12;;;;;;;2.55;1.63;;;;;;;;;;5113468;28;20074;-60
2023/08/16 02:38:39;;;;;;;2.88;1.95;;;;;;;;;;5113230;28;20401;-60
2023/08/16 02:41:06;;;;;;;3.78;2.42;;;;;;;;;;5113211;28;20059;-60
2023/08/16 02:43:34;;;;;;;3.10;2.00;;;;;;;;;;5106159;28;20052;-60
2023/08/16 02:46:01;;;;;;;4.35;1.65;;;;;;;;;;5093178;28;20063;-60
2023/08/16 02:48:27;;;;;;;2.85;1.55;;;;;;;;;;5093086;28;20401;-61
2023/08/16 02:50:54;;;;;;;3.17;1.90;;;;;;;;;;5093207;28;20048;-60
2023/08/16 02:53:22;;;;;;;2.60;1.50;;;;;;;;;;5093131;28;20052;-60
2023/08/16 02:55:52;;;;;;;3.30;1.50;;;;;;;;;;5092821;28;20067;-60
2023/08/16 02:58:19;;;;;;;2.10;1.50;;;;;;;;;;5091450;28;20413;-60
2023/08/16 03:00:48;;;;;;;3.15;1.75;;;;;;;;;;5093110;28;20048;-60
2023/08/16 03:03:15;;;;;;;3.97;1.83;;;;;;;;;;5092374;28;20055;-60
2023/08/16 03:05:41;;;;;;;3.53;1.80;;;;;;;;;;5092789;28;20063;-60
2023/08/16 03:08:08;;;;;;;3.00;1.48;;;;;;;;;;5092775;28;20059;-60
2023/08/16 03:10:36;;;;;;;3.67;1.95;;;;;;;;;;5092613;28;20055;-60
2023/08/16 03:13:06;;;;;;;5.03;1.75;;;;;;;;;;5092085;28;20066;-59
2023/08/16 03:15:33;;;;;;;2.20;1.58;;;;;;;;;;5096956;28;20048;-60
2023/08/16 03:18:00;;;;;;;3.03;1.63;;;;;;;;;;5092247;28;20059;-60
2023/08/16 03:20:30;;;;;;;2.83;2.10;;;;;;;;;;5090960;28;20404;-60
2023/08/16 03:22:57;;;;;;;1.77;1.35;;;;;;;;;;5107934;28;20055;-61
2023/08/16 03:25:23;;;;;;;2.50;1.63;;;;;;;;;;5112799;28;20051;-60
2023/08/16 03:27:52;;;;;;;2.92;1.70;;;;;;;;;;5112363;28;20048;-60
2023/08/16 03:30:19;;;;;;;4.13;1.77;;;;;;;;;;5093817;28;20059;-60
2023/08/16 03:32:46;;;;;;;3.17;1.75;;;;;;;;;;5092462;28;20063;-60
2023/08/16 03:35:16;;;;;;;2.67;1.30;;;;;;;;;;5102672;28;20400;-60
2023/08/16 03:37:43;;;;;;;3.42;2.00;;;;;;;;;;5112350;28;20059;-60
2023/08/16 03:40:10;;;;;;;3.50;2.15;;;;;;;;;;5104110;28;20485;-60
2023/08/16 03:42:37;;;;;;;3.85;1.70;;;;;;;;;;5112714;28;20048;-60
2023/08/16 03:45:06;;;;;;;3.40;1.88;;;;;;;;;;5110722;28;20055;-60
2023/08/16 03:47:33;;;;;;;2.78;2.03;;;;;;;;;;5112238;28;20059;-60
2023/08/16 03:50:00;;;;;;;4.60;2.45;;;;;;;;;;5112577;28;20048;-60
2023/08/16 03:52:26;;;;;;;5.40;2.13;;;;;;;;;;5112440;28;20054;-60
2023/08/16 03:54:54;;;;;;;4.45;1.70;;;;;;;;;;5112428;28;20427;-60
2023/08/16 03:57:23;;;;;;;2.80;1.80;;;;;;;;;;5112576;28;20062;-60
2023/08/16 03:59:50;;;;;;;3.97;2.45;;;;;;;;;;5110500;28;20048;-60
2023/08/16 04:02:19;;;;;;;2.60;1.75;;;;;;;;;;5112185;28;20067;-60
2023/08/16 04:04:46;;;;;;;3.35;2.10;;;;;;;;;;5112284;28;20400;-60
2023/08/16 04:07:13;;;;;;;4.30;2.80;;;;;;;;;;5111664;28;20052;-60
2023/08/16 04:09:40;;;;;;;4.55;2.15;;;;;;;;;;5112122;28;20051;-60
2023/08/16 04:12:07;;;;;;;5.40;2.75;;;;;;;;;;5112145;28;20403;-60
2023/08/16 04:14:34;;;;;;;3.63;2.40;;;;;;;;;;5110285;28;20054;-60
2023/08/16 04:17:01;;;;;;;3.88;2.40;;;;;;;;;;5112026;28;20051;-59
2023/08/16 04:19:31;;;;;;;3.88;2.30;;;;;;;;;;5111942;28;20047;-60
2023/08/16 04:21:58;;;;;;;4.35;2.60;;;;;;;;;;5114714;28;20048;-59
2023/08/16 04:24:24;;;;;;;3.97;2.55;;;;;;;;;;5115952;28;20051;-60
2023/08/16 04:26:51;;;;;;;2.92;1.83;;;;;;;;;;5131927;27;20063;-60
2023/08/16 04:29:18;;;;;;;3.17;2.40;;;;;;;;;;5111785;27;20055;-60
2023/08/16 04:31:45;;;;;;;3.10;1.88;;;;;;;;;;5116056;28;20051;-60
2023/08/16 04:34:12;;;;;;;6.00;2.60;;;;;;;;;;5115475;28;20047;-60
2023/08/16 04:36:40;;;;;;;3.47;1.85;;;;;;;;;;5107906;28;20063;-60
2023/08/16 04:39:08;;;;;;;4.93;2.45;;;;;;;;;;5103442;27;20048;-60
2023/08/16 04:41:36;;;;;;;4.22;2.38;;;;;;;;;;5115196;28;20052;-60
2023/08/16 04:44:03;;;;;;;4.55;2.65;;;;;;;;;;5111689;28;20048;-60
2023/08/16 04:46:30;;;;;;;5.25;2.25;;;;;;;;;;5115332;28;20052;-60
2023/08/16 04:48:57;;;;;;;3.88;2.20;;;;;;;;;;5116111;28;20058;-60
2023/08/16 04:51:24;;;;;;;3.03;2.10;;;;;;;;;;5106534;28;20416;-61
2023/08/16 04:53:52;;;;;;;2.58;1.98;;;;;;;;;;5115012;28;20055;-61
2023/08/16 04:56:18;;;;;;;2.90;1.77;;;;;;;;;;5112308;28;20468;-60
2023/08/16 04:58:45;;;;;;;3.80;2.13;;;;;;;;;;5110135;28;20060;-60
2023/08/16 05:01:12;;;;;;;4.10;2.38;;;;;;;;;;5115304;28;20052;-60
2023/08/16 05:03:39;;;;;;;2.83;1.80;;;;;;;;;;5115353;28;20048;-60
2023/08/16 05:06:06;;;;;;;3.80;2.03;;;;;;;;;;5115163;28;20499;-60
2023/08/16 05:08:32;;;;;;;3.65;2.25;;;;;;;;;;5115218;28;20055;-60
2023/08/16 05:11:01;;;;;;;2.92;1.88;;;;;;;;;;5113060;28;20055;-60
2023/08/16 05:13:28;;;;;;;3.58;2.40;;;;;;;;;;5111640;28;21445;-60
2023/08/16 05:15:54;;;;;;;3.17;1.80;;;;;;;;;;5100658;28;20043;-60
2023/08/16 05:18:22;;;;;;;4.70;2.20;;;;;;;;;;5100519;28;20048;-60
2023/08/16 05:20:48;;;;;;;3.53;2.15;;;;;;;;;;5102121;28;20429;-61
2023/08/16 05:23:15;;;;;;;5.10;2.50;;;;;;;;;;5113267;28;20048;-61
2023/08/16 05:25:42;;;;;;;3.38;1.73;;;;;;;;;;5114815;28;20059;-61
2023/08/16 05:28:10;;;;;;;3.50;1.85;;;;;;;;;;5103815;28;20059;-62
2023/08/16 05:30:37;;;;;;;2.83;2.05;;;;;;;;;;5088834;28;20054;-59
2023/08/16 05:33:04;;;;;;;6.75;2.45;;;;;;;;;;5078751;27;20415;-60
2023/08/16 05:35:33;;;;;;;3.72;2.10;;;;;;;;;;5090759;28;20067;-60
2023/08/16 05:38:00;;;;;;;3.33;2.17;;;;;;;;;;5113757;28;20059;-61
2023/08/16 05:40:26;;;;;;;4.47;2.30;;;;;;;;;;5111263;28;20055;-60
2023/08/16 05:42:54;;;;;;;2.55;1.98;;;;;;;;;;5097927;28;20477;-61
2023/08/16 05:45:23;;;;;;;3.78;1.50;;;;;;;;;;5108839;28;20062;-60
2023/08/16 05:47:49;;;;;;;2.70;1.70;;;;;;;;;;5112220;28;20052;-61
2023/08/16 05:50:16;;;;;;;4.75;2.05;;;;;;;;;;5101037;28;20044;-61
2023/08/16 05:52:43;;;;;;;3.25;2.42;;;;;;;;;;5099045;28;20055;-60
2023/08/16 05:55:10;;;;;;;4.82;2.60;;;;;;;;;;5098990;28;20047;-61
2023/08/16 05:57:36;;;;;;;4.40;2.55;;;;;;;;;;5110501;28;20477;-60
2023/08/16 06:00:03;;;;;;;5.90;2.55;;;;;;;;;;5112474;27;20047;-60
2023/08/16 06:02:32;;;;;;;6.07;4.43;;;;;;;;;;5106402;28;20075;-61
2023/08/16 06:04:59;;;;;;;8.85;4.47;;;;;;;;;;5109197;28;20408;-61
2023/08/16 06:07:26;;;;;;;5.82;3.97;;;;;;;;;;5108500;28;20056;-61
2023/08/16 06:09:53;;;;;;;8.65;4.47;;;;;;;;;;5109562;27;20054;-61
2023/08/16 06:12:20;;;;;;;9.48;3.70;;;;;;;;;;5107734;27;20078;-61
2023/08/16 06:14:47;;;;;;;8.60;4.95;;;;;;;;;;5106318;28;20141;-61
2023/08/16 06:17:13;;;;;;;10.15;5.65;;;;;;;;;;5110933;28;20421;-61
2023/08/16 06:19:42;;;;;;;10.60;5.75;;;;;;;;;;5109380;28;20058;-61
2023/08/16 06:22:08;;;;;;;9.63;4.85;;;;;;;;;;5113937;28;20052;-61
2023/08/16 06:24:35;;;;;;;7.35;4.30;;;;;;;;;;5113696;28;20056;-62
2023/08/16 06:27:02;;;;;;;6.82;4.65;;;;;;;;;;5113842;28;20055;-61
2023/08/16 06:29:29;;;;;;;9.55;4.85;;;;;;;;;;5107365;28;20048;-61
2023/08/16 06:31:56;;;;;;;7.55;3.95;;;;;;;;;;5109768;28;20070;-61
2023/08/16 06:34:24;;;;;;;9.05;4.97;;;;;;;;;;5112989;28;20055;-61
2023/08/16 06:36:52;;;;;;;6.95;4.63;;;;;;;;;;5113440;28;20055;-61
2023/08/16 06:39:19;;;;;;;7.72;4.10;;;;;;;;;;5110327;28;20067;-61
2023/08/16 06:41:46;;;;;;;7.80;4.65;;;;;;;;;;5108285;28;20058;-61
2023/08/16 06:44:12;;;;;;;8.65;4.75;;;;;;;;;;5102509;28;20067;-61
2023/08/16 06:46:39;;;;;;;9.90;5.32;;;;;;;;;;5113042;28;20051;-60
2023/08/16 06:49:06;;;;;;;9.75;4.57;;;;;;;;;;5112035;28;20481;-60
2023/08/16 06:51:33;;;;;;;7.80;4.18;;;;;;;;;;5111837;28;20063;-61
2023/08/16 06:54:01;;;;;;;9.85;4.75;;;;;;;;;;5113072;28;20052;-61
2023/08/16 06:56:29;;;;;;;7.45;4.13;;;;;;;;;;5112673;28;20051;-61
2023/08/16 06:58:56;;;;;;;7.43;4.18;;;;;;;;;;5108034;28;20052;-60
2023/08/16 07:01:23;;;;;;;10.07;5.03;;;;;;;;;;5098917;28;20052;-61
2023/08/16 07:03:50;;;;;;;7.78;4.15;;;;;;;;;;5112028;28;20368;-63
2023/08/16 07:06:17;;;;;;;7.63;4.32;;;;;;;;;;5104932;28;20063;-62
2023/08/16 07:08:44;;;;;;;7.47;4.68;;;;;;;;;;5093385;28;20051;-62
2023/08/16 07:11:12;;;;;;;7.60;5.13;;;;;;;;;;5093367;28;20051;-63
2023/08/16 07:13:39;;;;;;;7.32;4.45;;;;;;;;;;5097765;28;20071;-63
2023/08/16 07:16:05;;;;;;;7.95;4.65;;;;;;;;;;5094721;28;20056;-63
2023/08/16 07:18:32;;;;;;;9.35;4.65;;;;;;;;;;5090316;28;20058;-62
2023/08/16 07:20:59;;;;;;;10.32;4.90;;;;;;;;;;5104952;28;20059;-62
2023/08/16 07:23:26;;;;;;;6.43;4.32;;;;;;;;;;5098456;28;20074;-63
2023/08/16 07:25:55;;;;;;;6.70;4.15;;;;;;;;;;5091495;28;20059;-63
2023/08/16 07:28:23;;;;;;;7.55;4.32;;;;;;;;;;5091683;28;20382;-63
2023/08/16 07:30:52;;;;;;;8.35;3.85;;;;;;;;;;5083285;28;21155;-62
2023/08/16 07:33:19;;;;;;;7.70;4.45;;;;;;;;;;5097467;28;20074;-63
2023/08/16 07:35:46;;;;;;;6.22;4.45;;;;;;;;;;5094208;28;20063;-63
2023/08/16 07:38:12;;;;;;;6.18;3.85;;;;;;;;;;5095182;28;20060;-63
2023/08/16 07:40:39;;;;;;;7.60;4.57;;;;;;;;;;5094183;28;20044;-63
2023/08/16 07:43:06;;;;;;;7.38;4.45;;;;;;;;;;5089013;28;20059;-63
2023/08/16 07:45:34;;;;;;;7.82;5.13;;;;;;;;;;5084302;28;20056;-61
2023/08/16 07:48:01;;;;;;;8.38;5.07;;;;;;;;;;5094235;28;20050;-63
2023/08/16 07:50:28;;;;;;;10.82;5.60;;;;;;;;;;5084722;28;20409;-62
2023/08/16 07:52:55;;;;;;;12.52;6.95;;;;;;;;;;5093876;28;20059;-63
2023/08/16 07:55:23;;;;;;;11.27;7.05;;;;;;;;;;5098056;28;20598;-63
2023/08/16 07:57:50;;;;;;;11.07;6.60;;;;;;;;;;5106378;28;21939;-63
2023/08/16 08:00:17;;;;;;;8.68;5.78;;;;;;;;;;5106809;28;20060;-63
2023/08/16 08:02:46;;;;;;;8.90;6.20;;;;;;;;;;5102702;28;20062;-62
2023/08/16 08:05:14;;;;;;;10.30;5.80;;;;;;;;;;5091855;28;20058;-63
2023/08/16 08:07:41;;;;;;;8.38;4.95;;;;;;;;;;5101909;28;20047;-63
2023/08/16 08:10:08;;;;;;;7.30;4.85;;;;;;;;;;5103733;28;20044;-63
2023/08/16 08:12:35;;;;;;;8.35;4.78;;;;;;;;;;5094137;28;20053;-63
2023/08/16 08:15:02;;;;;;;7.53;4.57;;;;;;;;;;5096361;28;20052;-63
2023/08/16 08:17:29;;;;;;;8.07;4.25;;;;;;;;;;5092070;28;20151;-62
2023/08/16 08:19:57;;;;;;;6.20;3.75;;;;;;;;;;5103981;28;20058;-63
2023/08/16 08:22:24;;;;;;;20.38;4.10;;;;;;;;;;5098753;28;20055;-63
2023/08/16 08:24:51;;;;;;;9.52;4.20;;;;;;;;;;5094180;28;20051;-63
2023/08/16 08:27:17;;;;;;;5.43;3.78;;;;;;;;;;5097683;28;20067;-63
2023/08/16 08:29:45;;;;;;;6.10;3.25;;;;;;;;;;5086230;28;20067;-63
2023/08/16 08:32:11;;;;;;;6.30;4.05;;;;;;;;;;5092811;28;20058;-63
2023/08/16 08:34:39;;;;;;;6.45;4.10;;;;;;;;;;5091025;28;20059;-63
2023/08/16 08:37:07;;;;;;;6.10;3.92;;;;;;;;;;5096631;28;20048;-63
2023/08/16 08:39:34;;;;;;;9.23;4.20;;;;;;;;;;5092214;28;20051;-64
2023/08/16 08:42:02;;;;;;;8.57;4.80;;;;;;;;;;5097597;28;20040;-63
2023/08/16 08:44:29;;;;;;;5.93;3.63;;;;;;;;;;5097783;28;20056;-63
2023/08/16 08:46:56;;;;;;;5.65;4.22;;;;;;;;;;5093748;28;20502;-63
2023/08/16 08:49:23;;;;;;;5.63;3.67;;;;;;;;;;5089942;28;20048;-63
2023/08/16 08:51:50;;;;;;;5.75;4.13;;;;;;;;;;5088989;28;20048;-63
2023/08/16 08:54:18;;;;;;;6.65;3.80;;;;;;;;;;5103992;28;20067;-63
2023/08/16 08:56:46;;;;;;;7.45;4.53;;;;;;;;;;5092776;28;20063;-63
2023/08/16 08:59:13;;;;;;;5.95;3.80;;;;;;;;;;5088018;28;20056;-63
2023/08/16 09:01:40;;;;;;;9.30;4.32;;;;;;;;;;5102786;28;20131;-64
2023/08/16 09:04:08;;;;;;;6.35;3.88;;;;;;;;;;5107126;28;20051;-63
2023/08/16 09:06:35;;;;;;;8.57;5.38;;;;;;;;;;5104180;28;20043;-63
2023/08/16 09:09:02;;;;;;;6.28;3.53;;;;;;;;;;5107166;28;20052;-63
2023/08/16 09:11:30;;;;;;;6.63;4.22;;;;;;;;;;5111046;28;20515;-63
2023/08/16 09:14:01;;;;;;;5.95;3.83;;;;;;;;;;5104881;28;20047;-64
2023/08/16 09:16:28;;;;;;;8.60;4.35;;;;;;;;;;5108963;28;20495;-63
2023/08/16 09:18:55;;;;;;;7.78;4.75;;;;;;;;;;5098663;28;20101;-64
2023/08/16 09:21:24;;;;;;;6.65;4.22;;;;;;;;;;5103268;28;20059;-64
2023/08/16 09:23:51;;;;;;;;;;;;;;;;;;5110942;28;20428;-63
2023/08/16 09:26:18;;;;;;;6.72;4.40;;;;;;;;;;5109124;28;19934;-64
2023/08/16 09:28:46;;;;;;;5.68;3.83;;;;;;;;;;5104240;28;20044;-64
2023/08/16 09:31:13;;;;;;;5.27;3.50;;;;;;;;;;5110317;28;20400;-63
2023/08/16 09:33:40;;;;;;;6.38;3.83;;;;;;;;;;5107572;28;20159;-64
2023/08/16 09:36:06;;;;;;;6.00;3.75;;;;;;;;;;5108565;27;20063;-63
2023/08/16 09:38:40;;;;;;;6.25;3.28;;;;;;;;;;5106957;28;20055;-64
2023/08/16 09:41:12;;;;;;;7.10;3.53;;;;;;;;;;5088094;28;20036;-64
2023/08/16 09:43:39;;;;;;;5.63;3.67;;;;;;;;;;5108460;28;20047;-63
2023/08/16 09:46:07;;;;;;;7.07;3.72;;;;;;;;;;5107785;28;20044;-64
2023/08/16 09:48:34;;;;;;;6.40;4.43;;;;;;;;;;5110723;28;20062;-63
2023/08/16 09:51:02;;;;;;;5.93;3.65;;;;;;;;;;5108123;28;20551;-63
2023/08/16 09:53:29;;;;;;;5.65;3.25;;;;;;;;;;5111981;28;20499;-63
2023/08/16 09:55:56;;;;;;;7.25;4.28;;;;;;;;;;5107500;28;20048;-64
2023/08/16 09:58:23;;;;;;;7.40;3.97;;;;;;;;;;5108842;28;20055;-64
2023/08/16 10:00:50;;;;;;;6.60;4.00;;;;;;;;;;5103453;28;20118;-63
2023/08/16 10:03:18;;;;;;;7.18;4.03;;;;;;;;;;5101609;28;20051;-64
2023/08/16 10:05:45;;;;;;;6.88;4.28;;;;;;;;;;5103922;28;20055;-63
2023/08/16 10:08:12;;;;;;;7.47;4.18;;;;;;;;;;5105274;28;20119;-63
2023/08/16 10:10:39;;;;;;;6.68;4.05;;;;;;;;;;5104916;28;20070;-63
2023/08/16 10:13:06;;;;;;;5.95;4.68;;;;;;;;;;5099776;28;20047;-64
2023/08/16 10:15:34;;;;;;;7.22;4.35;;;;;;;;;;5099693;28;20055;-63
2023/08/16 10:18:02;;;;;;;6.43;3.95;;;;;;;;;;5107605;28;20392;-63
2023/08/16 10:20:32;;;;;;;9.45;4.78;;;;;;;;;;5105348;28;20066;-64
2023/08/16 10:23:00;;;;;;;8.43;4.18;;;;;;;;;;5109103;28;20040;-64
2023/08/16 10:25:28;;;;;;;8.25;4.97;;;;;;;;;;5092702;28;20055;-64
2023/08/16 10:27:56;;;;;;;6.78;4.88;;;;;;;;;;5101916;28;20412;-64
2023/08/16 10:30:23;;;;;;;6.57;3.80;;;;;;;;;;5100298;28;20052;-64
2023/08/16 10:32:52;;;;;;;8.43;4.63;;;;;;;;;;5104875;28;20492;-64
2023/08/16 10:35:20;;;;;;;8.25;4.00;;;;;;;;;;5103780;28;20059;-64
2023/08/16 10:37:49;;;;;;;7.25;3.67;;;;;;;;;;5105298;28;20070;-64
2023/08/16 10:40:16;;;;;;;;;;;;;;;;;;5102367;28;20044;-64
2023/08/16 10:42:49;;;;;;;5.22;3.33;;;;;;;;;;5101776;28;19923;-63
2023/08/16 10:45:21;;;;;;;4.72;3.35;;;;;;;;;;5098849;28;20056;-63
2023/08/16 10:47:48;;;;;;;5.47;3.10;;;;;;;;;;5110137;28;20399;-63
2023/08/16 10:50:15;;;;;;;5.00;4.03;;;;;;;;;;5102094;27;20055;-64
2023/08/16 10:52:43;;;;;;;4.47;2.80;;;;;;;;;;5100169;28;20047;-62
2023/08/16 10:55:11;;;;;;;8.57;3.92;;;;;;;;;;5099964;28;20396;-62
2023/08/16 10:57:39;;;;;;;4.72;2.92;;;;;;;;;;5106186;28;20048;-64
2023/08/16 11:00:08;;;;;;;6.15;4.35;;;;;;;;;;5110482;28;20072;-64
2023/08/16 11:02:36;;;;;;;5.78;2.75;;;;;;;;;;5105691;28;20052;-64
2023/08/16 11:05:04;;;;;;;3.65;2.42;;;;;;;;;;5103992;28;20057;-64
2023/08/16 11:07:31;;;;;;;4.70;2.60;;;;;;;;;;5111785;28;20519;-64
2023/08/16 11:09:59;;;;;;;3.83;2.58;;;;;;;;;;5105959;28;20083;-64
2023/08/16 11:12:30;;;;;;;4.72;2.20;;;;;;;;;;5099200;28;20050;-64
2023/08/16 11:14:57;;;;;;;3.38;1.75;;;;;;;;;;5105856;28;20047;-63
2023/08/16 11:17:25;;;;;;;4.50;2.10;;;;;;;;;;5108963;28;20371;-64
2023/08/16 11:19:53;;;;;;;12.68;2.50;;;;;;;;;;5106368;28;20512;-64
2023/08/16 11:22:20;;;;;;;3.47;1.55;;;;;;;;;;5100321;27;20055;-63
2023/08/16 11:24:47;;;;;;;3.03;2.00;;;;;;;;;;5106075;28;20051;-64
2023/08/16 11:27:19;;;;;;;3.05;1.60;;;;;;;;;;5099202;28;20054;-64
2023/08/16 11:29:49;;;;;;;3.33;1.90;;;;;;;;;;5109216;28;20047;-64
2023/08/16 11:32:16;;;;;;;2.33;1.52;;;;;;;;;;5112567;28;20412;-64
2023/08/16 11:34:43;;;;;;;9.52;2.75;;;;;;;;;;5107301;28;20158;-63
2023/08/16 11:37:17;;;;;;;2.58;1.88;;;;;;;;;;5110729;28;20424;-64
2023/08/16 11:39:44;;;;;;;3.25;2.33;;;;;;;;;;5099879;28;20166;-64
2023/08/16 11:42:11;;;;;;;3.38;2.10;;;;;;;;;;5111849;28;20048;-64
2023/08/16 11:44:39;;;;;;;4.32;2.17;;;;;;;;;;5107539;28;20426;-63
2023/08/16 11:47:11;;;;;;;2.75;1.85;;;;;;;;;;5107666;28;20051;-63
2023/08/16 11:49:37;;;;;;;3.38;1.80;;;;;;;;;;5108248;28;20399;-63
2023/08/16 11:52:05;;;;;;;2.60;2.10;;;;;;;;;;5106926;28;20048;-63
2023/08/16 11:54:32;;;;;;;3.65;2.20;;;;;;;;;;5111217;28;20059;-64
2023/08/16 11:56:59;;;;;;;4.07;2.50;;;;;;;;;;5109932;28;20044;-63
2023/08/16 11:59:26;;;;;;;3.17;1.95;;;;;;;;;;5111268;28;20452;-64
2023/08/16 12:01:54;;;;;;;3.60;2.20;;;;;;;;;;5105066;28;20049;-64
2023/08/16 12:04:23;;;;;;;2.72;1.73;;;;;;;;;;5103799;28;20062;-63
2023/08/16 12:06:50;;;;;;;2.72;2.10;;;;;;;;;;5112950;28;20044;-63
2023/08/16 12:09:17;;;;;;;2.08;1.38;;;;;;;;;;5110645;28;20047;-64
2023/08/16 12:11:44;;;;;;;5.70;1.70;;;;;;;;;;5107246;28;20047;-64
2023/08/16 12:14:11;;;;;;;2.58;1.55;;;;;;;;;;5103769;28;20050;-62
2023/08/16 12:16:38;;;;;;;3.22;1.80;;;;;;;;;;5106298;28;20047;-63
2023/08/16 12:19:05;;;;;;;4.13;1.70;;;;;;;;;;5110164;28;20511;-63
2023/08/16 12:21:33;;;;;;;3.15;1.60;;;;;;;;;;5105080;28;20047;-64
2023/08/16 12:24:00;;;;;;;5.13;2.05;;;;;;;;;;5110683;28;21951;-63
2023/08/16 12:26:26;;;;;;;5.90;2.25;;;;;;;;;;5107913;28;20048;-64
2023/08/16 12:28:54;;;;;;;2.65;1.85;;;;;;;;;;5105472;28;20063;-63
2023/08/16 12:31:21;;;;;;;4.25;2.28;;;;;;;;;;5110181;28;20047;-63
2023/08/16 12:33:48;;;;;;;3.35;1.70;;;;;;;;;;5110283;28;20040;-64
2023/08/16 12:36:15;;;;;;;2.20;1.38;;;;;;;;;;5112410;28;20072;-64
2023/08/16 12:38:43;;;;;;;3.85;2.20;;;;;;;;;;5112603;28;20050;-63
2023/08/16 12:41:10;;;;;;;3.58;1.63;;;;;;;;;;5104154;28;20052;-64
2023/08/16 12:43:36;;;;;;;2.10;1.52;;;;;;;;;;5105728;28;20470;-63
2023/08/16 12:46:06;;;;;;;5.15;2.10;;;;;;;;;;5106188;28;20051;-64
2023/08/16 12:48:33;;;;;;;4.72;2.10;;;;;;;;;;5097198;28;20063;-64
2023/08/16 12:50:59;;;;;;;2.47;1.60;;;;;;;;;;5102033;28;20060;-64
2023/08/16 12:53:30;;;;;;;4.80;2.10;;;;;;;;;;5110377;28;20054;-64
2023/08/16 12:55:58;;;;;;;3.65;1.70;;;;;;;;;;5105203;28;20052;-63
2023/08/16 12:58:25;;;;;;;3.85;1.80;;;;;;;;;;5096570;27;20405;-64
2023/08/16 13:00:52;;;;;;;3.38;1.95;;;;;;;;;;5106531;28;20415;-63
2023/08/16 13:03:19;;;;;;;2.83;1.80;;;;;;;;;;5105415;28;20058;-64
2023/08/16 13:05:46;;;;;;;3.45;2.20;;;;;;;;;;5106360;28;20050;-64
2023/08/16 13:08:13;;;;;;;2.38;1.80;;;;;;;;;;5101477;28;20047;-63
2023/08/16 13:10:39;;;;;;;5.95;1.80;;;;;;;;;;5109002;28;20055;-63
2023/08/16 13:13:08;;;;;;;5.75;2.25;;;;;;;;;;5094789;28;20071;-63
2023/08/16 13:15:35;;;;;;;;;;;;;;;;;;5104916;28;20059;-64
2023/08/16 13:18:02;;;;;;;3.28;2.15;;;;;;;;;;5104091;28;19919;-63
2023/08/16 13:20:30;;;;;;;3.45;2.13;;;;;;;;;;5111799;28;20055;-64
2023/08/16 13:22:57;;;;;;;4.63;1.70;;;;;;;;;;5101941;28;20455;-64
2023/08/16 13:25:24;;;;;;;4.60;1.88;;;;;;;;;;5112621;28;20048;-64
2023/08/16 13:27:51;;;;;;;4.25;1.85;;;;;;;;;;5105694;28;20047;-64
2023/08/16 13:30:19;;;;;;;1.80;1.48;;;;;;;;;;5109671;28;20052;-64
2023/08/16 13:32:46;;;;;;;5.22;2.13;;;;;;;;;;5109877;28;20054;-64
2023/08/16 13:35:13;;;;;;;2.45;1.70;;;;;;;;;;5105347;28;20043;-62
2023/08/16 13:37:39;;;;;;;2.05;1.40;;;;;;;;;;5113451;27;20055;-64
2023/08/16 13:40:07;;;;;;;6.55;1.77;;;;;;;;;;5109036;28;20055;-64
2023/08/16 13:42:34;;;;;;;3.13;1.60;;;;;;;;;;5102620;28;20488;-64
2023/08/16 13:45:00;;;;;;;3.17;2.00;;;;;;;;;;5111955;28;20048;-64
2023/08/16 13:47:29;;;;;;;3.72;1.95;;;;;;;;;;5109038;28;20055;-64
2023/08/16 13:49:56;;;;;;;3.72;2.30;;;;;;;;;;5109358;28;20111;-64
2023/08/16 13:52:22;;;;;;;2.50;1.60;;;;;;;;;;5102998;28;20054;-63
2023/08/16 13:54:49;;;;;;;3.72;2.17;;;;;;;;;;5109495;28;20051;-63
2023/08/16 13:57:16;;;;;;;2.70;1.80;;;;;;;;;;5106726;28;20059;-64
2023/08/16 13:59:43;;;;;;;3.15;1.88;;;;;;;;;;5104597;28;20052;-63
2023/08/16 14:02:10;;;;;;;4.10;2.13;;;;;;;;;;5107242;28;20051;-63
2023/08/16 14:04:38;;;;;;;2.63;1.52;;;;;;;;;;5111129;28;20052;-64
2023/08/16 14:07:05;;;;;;;2.47;1.35;;;;;;;;;;5109091;28;20047;-63
2023/08/16 14:09:32;;;;;;;3.63;1.80;;;;;;;;;;5108097;28;20055;-63
2023/08/16 14:11:59;;;;;;;2.17;1.40;;;;;;;;;;5103601;28;20052;-64
2023/08/16 14:14:26;;;;;;;2.40;1.27;;;;;;;;;;5104087;28;20051;-63
2023/08/16 14:16:53;;;;;;;4.05;2.03;;;;;;;;;;5106793;28;20107;-63
2023/08/16 14:19:20;;;;;;;2.70;1.80;;;;;;;;;;5099343;28;20499;-63
2023/08/16 14:21:48;;;;;;;3.22;2.17;;;;;;;;;;5105990;28;20070;-64
2023/08/16 14:24:20;;;;;;;4.75;1.63;;;;;;;;;;5109168;28;20047;-63
2023/08/16 14:26:47;;;;;;;1.90;1.20;;;;;;;;;;5097174;28;20047;-64
2023/08/16 14:29:15;;;;;;;3.70;1.88;;;;;;;;;;5107441;28;20501;-61
2023/08/16 14:31:42;;;;;;;1.75;1.20;;;;;;;;;;5104784;28;20044;-64
2023/08/16 14:34:12;;;;;;;4.28;1.65;;;;;;;;;;5102206;28;20522;-63
2023/08/16 14:36:40;;;;;;;4.15;1.30;;;;;;;;;;5109921;28;20059;-64
2023/08/16 14:39:09;;;;;;;3.13;1.65;;;;;;;;;;5111898;27;20056;-62
2023/08/16 14:41:38;;;;;;;;;;;;;;;;;;5112582;28;20048;-66
2023/08/16 14:44:05;;;;;;;3.40;1.20;;;;;;;;;;5107702;28;20327;-63